createdAt,value
2018-07-03T00:01:25.345Z,1.43
2018-07-03T00:03:54.146Z,1.83
2018-07-03T00:06:22.988Z,1.40
2018-07-03T00:08:51.735Z,2.20
2018-07-03T00:11:20.465Z,1.33
2018-07-03T00:13:49.210Z,2.57
2018-07-03T00:16:23.445Z,2.60
2018-07-03T00:18:54.036Z,1.30
2018-07-03T00:21:22.655Z,1.30
2018-07-03T00:23:51.432Z,1.83
2018-07-03T00:26:20.248Z,2.43
2018-07-03T00:28:49.022Z,2.33
2018-07-03T00:31:17.767Z,2.27
2018-07-03T00:33:46.510Z,3.10
2018-07-03T00:36:15.343Z,2.30
2018-07-03T00:38:44.202Z,2.13
2018-07-03T00:41:13.048Z,1.70
2018-07-03T00:43:41.865Z,1.70
2018-07-03T00:46:10.622Z,1.40
2018-07-03T00:48:39.975Z,2.43
2018-07-03T00:51:08.667Z,3.87
2018-07-03T00:53:37.472Z,3.20
2018-07-03T00:56:06.337Z,1.37
2018-07-03T00:58:35.021Z,1.50
2018-07-03T01:01:03.796Z,1.37
2018-07-03T01:03:32.562Z,1.30
2018-07-03T01:06:01.274Z,1.30
2018-07-03T01:08:32.113Z,1.63
2018-07-03T01:11:00.842Z,1.60
2018-07-03T01:13:29.608Z,1.23
2018-07-03T01:15:58.407Z,2.90
2018-07-03T01:18:27.173Z,2.10
2018-07-03T01:20:55.933Z,1.23
2018-07-03T01:23:24.665Z,1.30
2018-07-03T01:25:53.248Z,1.70
2018-07-03T01:28:21.950Z,1.33
2018-07-03T01:30:50.801Z,3.00
2018-07-03T01:33:19.512Z,2.17
2018-07-03T01:35:48.256Z,1.93
2018-07-03T01:38:17.050Z,1.90
2018-07-03T01:40:45.761Z,1.40
2018-07-03T01:43:14.605Z,3.00
2018-07-03T01:45:43.529Z,2.87
2018-07-03T01:48:12.356Z,1.80
2018-07-03T01:50:41.216Z,2.90
2018-07-03T01:53:10.038Z,3.60
2018-07-03T01:55:38.748Z,2.20
2018-07-03T01:58:08.500Z,3.20
2018-07-03T02:00:37.280Z,1.90
2018-07-03T02:03:06.355Z,1.70
2018-07-03T02:05:35.119Z,1.70
2018-07-03T02:08:03.825Z,1.97
2018-07-03T02:10:32.526Z,2.33
2018-07-03T02:13:01.421Z,2.50
2018-07-03T02:15:30.177Z,5.63
2018-07-03T02:17:58.910Z,2.90
2018-07-03T02:20:27.715Z,2.73
2018-07-03T02:22:56.589Z,3.17
2018-07-03T02:25:25.352Z,3.33
2018-07-03T02:27:54.148Z,3.57
2018-07-03T02:30:23.505Z,2.60
2018-07-03T02:32:52.189Z,3.17
2018-07-03T02:35:21.007Z,3.03
2018-07-03T02:37:49.706Z,3.70
2018-07-03T02:40:18.401Z,2.80
2018-07-03T02:42:47.293Z,4.10
2018-07-03T02:45:16.063Z,4.43
2018-07-03T02:47:45.030Z,4.47
2018-07-03T02:50:14.134Z,3.40
2018-07-03T02:52:43.924Z,3.80
2018-07-03T02:55:22.493Z,4.27
2018-07-03T02:57:51.347Z,4.07
2018-07-03T03:00:20.088Z,3.80
2018-07-03T03:02:48.786Z,3.60
2018-07-03T03:05:18.699Z,3.73
2018-07-03T03:07:47.462Z,4.10
2018-07-03T03:10:16.198Z,5.30
2018-07-03T03:12:51.437Z,4.33
2018-07-03T03:15:20.171Z,4.83
2018-07-03T03:17:48.884Z,7.73
2018-07-03T03:20:17.649Z,4.67
2018-07-03T03:22:46.433Z,3.70
2018-07-03T03:25:15.158Z,4.77
2018-07-03T03:27:43.857Z,4.43
2018-07-03T03:30:12.564Z,5.60
2018-07-03T03:32:47.025Z,4.93
2018-07-03T03:35:15.823Z,4.13
2018-07-03T03:37:44.861Z,3.00
2018-07-03T03:40:13.781Z,3.60
2018-07-03T03:42:42.720Z,2.80
2018-07-03T03:45:11.982Z,2.70
2018-07-03T03:47:42.101Z,3.20
2018-07-03T03:50:10.981Z,2.77
2018-07-03T03:52:41.902Z,3.00
2018-07-03T03:55:10.743Z,3.70
2018-07-03T03:57:39.440Z,3.27
2018-07-03T04:00:09.608Z,3.13
2018-07-03T04:02:40.436Z,3.50
2018-07-03T04:05:09.170Z,3.13
2018-07-03T04:07:38.040Z,3.20
2018-07-03T04:10:06.846Z,3.00
2018-07-03T04:12:35.571Z,3.83
2018-07-03T04:15:10.125Z,3.77
2018-07-03T04:17:39.270Z,5.07
2018-07-03T04:20:08.678Z,4.73
2018-07-03T04:22:37.499Z,3.60
2018-07-03T04:25:06.269Z,4.13
2018-07-03T04:27:35.026Z,5.70
2018-07-03T04:30:04.398Z,6.70
2018-07-03T04:32:33.130Z,3.97
2018-07-03T04:35:01.871Z,4.00
2018-07-03T04:37:30.682Z,3.33
2018-07-03T04:39:59.597Z,3.23
2018-07-03T04:42:29.383Z,5.13
2018-07-03T04:44:58.191Z,4.63
2018-07-03T04:47:27.001Z,3.70
2018-07-03T04:49:55.789Z,3.40
2018-07-03T04:52:24.574Z,4.13
2018-07-03T04:54:53.329Z,4.40
2018-07-03T04:57:22.030Z,5.33
2018-07-03T04:59:50.747Z,4.13
2018-07-03T05:02:20.590Z,4.10
2018-07-03T05:04:49.354Z,4.50
2018-07-03T05:07:18.106Z,3.70
2018-07-03T05:09:46.853Z,3.97
2018-07-03T05:12:15.606Z,3.83
2018-07-03T05:14:44.322Z,3.37
2018-07-03T05:17:13.177Z,4.57
2018-07-03T05:19:42.140Z,4.33
2018-07-03T05:22:10.926Z,5.43
2018-07-03T05:24:39.733Z,3.67
2018-07-03T05:27:08.501Z,3.97
2018-07-03T05:29:37.289Z,3.43
2018-07-03T05:32:05.845Z,6.20
2018-07-03T05:34:34.500Z,3.60
2018-07-03T05:37:03.308Z,8.83
2018-07-03T05:39:32.098Z,4.10
2018-07-03T05:42:00.870Z,7.47
2018-07-03T05:44:29.585Z,7.13
2018-07-03T05:46:58.341Z,4.10
2018-07-03T05:49:27.086Z,4.73
2018-07-03T05:51:55.773Z,3.60
2018-07-03T05:54:24.486Z,4.30
2018-07-03T05:56:53.303Z,4.97
2018-07-03T05:59:21.997Z,5.20
2018-07-03T06:01:50.992Z,7.37
2018-07-03T06:04:19.870Z,5.03
2018-07-03T06:06:48.814Z,3.23
2018-07-03T06:09:17.565Z,3.33
2018-07-03T06:11:46.344Z,2.60
2018-07-03T06:14:15.286Z,4.40
2018-07-03T06:16:44.049Z,6.73
2018-07-03T06:19:12.959Z,5.03
2018-07-03T06:21:41.777Z,6.07
2018-07-03T06:24:10.515Z,3.40
2018-07-03T06:26:39.284Z,6.57
2018-07-03T06:29:08.095Z,3.50
2018-07-03T06:31:37.433Z,3.20
2018-07-03T06:34:06.818Z,1.70
2018-07-03T06:36:35.817Z,2.23
2018-07-03T06:39:08.005Z,4.73
2018-07-03T06:41:36.542Z,2.93
2018-07-03T06:44:07.233Z,2.50
2018-07-03T06:46:36.080Z,3.30
2018-07-03T06:49:04.861Z,2.90
2018-07-03T06:51:34.116Z,4.73
2018-07-03T06:54:02.886Z,5.03
2018-07-03T06:56:31.705Z,3.10
2018-07-03T06:59:00.622Z,4.43
2018-07-03T07:01:29.338Z,2.37
2018-07-03T07:03:58.123Z,4.30
2018-07-03T07:06:27.326Z,2.40
2018-07-03T07:08:56.225Z,4.50
2018-07-03T07:11:25.253Z,2.10
2018-07-03T07:13:54.277Z,2.07
2018-07-03T07:16:23.017Z,1.83
2018-07-03T07:18:51.888Z,4.33
2018-07-03T07:21:20.677Z,3.17
2018-07-03T07:23:49.647Z,2.77
2018-07-03T07:26:18.335Z,1.93
2018-07-03T07:28:47.345Z,1.63
2018-07-03T07:31:16.118Z,1.63
2018-07-03T07:33:44.873Z,3.17
2018-07-03T07:36:13.819Z,1.83
2018-07-03T07:38:42.745Z,2.30
2018-07-03T07:41:11.497Z,3.00
2018-07-03T07:43:44.863Z,3.90
2018-07-03T07:46:13.557Z,1.13
2018-07-03T07:48:43.509Z,1.00
2018-07-03T07:51:12.362Z,1.80
2018-07-03T07:53:53.722Z,1.10
2018-07-03T07:56:22.483Z,2.17
2018-07-03T07:58:51.221Z,1.40
2018-07-03T08:01:19.895Z,1.40
2018-07-03T08:03:48.649Z,1.50
2018-07-03T08:06:17.373Z,1.00
2018-07-03T08:08:46.069Z,2.50
2018-07-03T08:11:14.875Z,1.60
2018-07-03T08:13:47.709Z,3.23
2018-07-03T08:16:16.481Z,1.97
2018-07-03T08:18:45.493Z,0.83
2018-07-03T08:21:14.501Z,0.80
2018-07-03T08:23:43.213Z,1.33
2018-07-03T08:26:11.948Z,2.03
2018-07-03T08:28:40.730Z,2.93
2018-07-03T08:31:09.466Z,1.50
2018-07-03T08:33:38.188Z,0.90
2018-07-03T08:36:08.923Z,3.87
2018-07-03T08:38:37.630Z,1.03
2018-07-03T08:41:06.483Z,1.03
2018-07-03T08:43:35.193Z,0.93
2018-07-03T08:46:04.090Z,1.40
2018-07-03T08:48:33.289Z,1.23
2018-07-03T08:51:03.110Z,1.40
2018-07-03T08:53:31.862Z,2.47
2018-07-03T08:56:00.647Z,2.33
2018-07-03T08:58:29.366Z,1.40
2018-07-03T09:00:58.224Z,1.43
2018-07-03T09:03:27.055Z,2.20
2018-07-03T09:05:55.770Z,4.20
2018-07-03T09:08:24.553Z,1.10
2018-07-03T09:10:55.378Z,2.37
2018-07-03T09:13:24.135Z,10.13
2018-07-03T09:15:52.941Z,1.53
2018-07-03T09:18:21.718Z,1.03
2018-07-03T09:20:50.499Z,0.93
2018-07-03T09:23:19.261Z,1.80
2018-07-03T09:25:48.085Z,1.93
2018-07-03T09:28:16.817Z,1.37
2018-07-03T09:30:45.631Z,2.70
2018-07-03T09:33:14.426Z,2.57
2018-07-03T09:35:43.229Z,0.93
2018-07-03T09:38:21.550Z,2.27
2018-07-03T09:40:50.419Z,1.23
2018-07-03T09:43:25.449Z,0.97
2018-07-03T09:45:54.173Z,1.57
2018-07-03T09:48:22.929Z,1.10
2018-07-03T09:50:51.678Z,1.83
2018-07-03T09:53:20.624Z,1.80
2018-07-03T09:55:49.421Z,0.90
2018-07-03T09:58:18.273Z,0.73
2018-07-03T10:00:52.593Z,2.20
2018-07-03T10:03:21.285Z,0.80
2018-07-03T10:05:50.243Z,1.37
2018-07-03T10:08:19.031Z,0.60
2018-07-03T10:10:47.829Z,2.20
2018-07-03T10:13:16.710Z,3.90
2018-07-03T10:15:45.555Z,2.60
2018-07-03T10:18:14.352Z,2.00
2018-07-03T10:20:43.146Z,3.40
2018-07-03T10:23:12.065Z,2.07
2018-07-03T10:25:40.795Z,1.10
2018-07-03T10:28:09.676Z,1.93
2018-07-03T10:30:38.417Z,2.87
2018-07-03T10:33:08.269Z,0.83
2018-07-03T10:35:37.162Z,1.20
2018-07-03T10:38:06.150Z,1.13
2018-07-03T10:40:34.850Z,2.40
2018-07-03T10:43:03.641Z,1.37
2018-07-03T10:45:32.493Z,1.93
2018-07-03T10:48:01.304Z,0.60
2018-07-03T10:50:30.057Z,0.97
2018-07-03T10:52:59.001Z,2.90
2018-07-03T10:55:27.809Z,1.20
2018-07-03T10:57:56.720Z,3.07
2018-07-03T11:00:25.516Z,2.20
2018-07-03T11:02:54.264Z,2.77
2018-07-03T11:05:23.018Z,0.97
2018-07-03T11:07:51.813Z,2.53
2018-07-03T11:10:20.594Z,1.40
2018-07-03T11:12:49.333Z,4.60
2018-07-03T11:15:18.251Z,1.70
2018-07-03T11:17:50.046Z,1.37
2018-07-03T11:20:18.934Z,1.13
2018-07-03T11:22:47.535Z,3.17
2018-07-03T11:25:17.495Z,1.93
2018-07-03T11:27:46.277Z,2.07
2018-07-03T11:30:15.301Z,1.20
2018-07-03T11:32:44.128Z,2.40
2018-07-03T11:35:13.025Z,2.10
2018-07-03T11:37:41.743Z,2.00
2018-07-03T11:40:10.433Z,2.83
2018-07-03T11:42:39.229Z,1.30
2018-07-03T11:45:08.069Z,1.17
2018-07-03T11:47:36.916Z,1.20
2018-07-03T11:50:05.796Z,1.63
2018-07-03T11:52:34.549Z,1.00
2018-07-03T11:55:03.381Z,2.10
2018-07-03T11:57:32.318Z,1.10
2018-07-03T12:00:02.514Z,2.73
2018-07-03T12:02:31.387Z,2.03
2018-07-03T12:05:00.135Z,2.20
2018-07-03T12:07:28.895Z,1.47
2018-07-03T12:09:57.697Z,2.67
2018-07-03T12:12:26.482Z,1.23
2018-07-03T12:14:55.214Z,1.93
2018-07-03T12:17:26.042Z,1.40
2018-07-03T12:19:54.834Z,1.30
2018-07-03T12:22:23.577Z,0.70
2018-07-03T12:24:52.437Z,1.43
2018-07-03T12:27:21.190Z,1.10
2018-07-03T12:29:49.939Z,3.53
2018-07-03T12:32:18.652Z,0.80
2018-07-03T12:34:49.432Z,1.57
2018-07-03T12:37:18.152Z,1.70
2018-07-03T12:39:46.924Z,1.27
2018-07-03T12:42:15.655Z,3.37
2018-07-03T12:44:44.381Z,4.73
2018-07-03T12:47:13.219Z,1.43
2018-07-03T12:49:44.243Z,2.50
2018-07-03T12:52:12.726Z,1.47
2018-07-03T12:54:41.397Z,1.07
2018-07-03T12:57:10.137Z,2.50
2018-07-03T12:59:38.881Z,1.23
2018-07-03T13:02:08.711Z,1.30
2018-07-03T13:04:37.554Z,2.20
2018-07-03T13:07:06.490Z,2.00
2018-07-03T13:09:35.298Z,1.50
2018-07-03T13:12:05.120Z,6.70
2018-07-03T13:14:34.644Z,1.40
2018-07-03T13:17:06.842Z,1.70
2018-07-03T13:19:35.606Z,2.53
2018-07-03T13:22:06.352Z,2.43
2018-07-03T13:24:35.083Z,1.63
2018-07-03T13:27:03.893Z,3.27
2018-07-03T13:29:32.726Z,3.63
2018-07-03T13:32:01.625Z,2.50
2018-07-03T13:34:30.478Z,1.20
2018-07-03T13:36:59.193Z,3.10
2018-07-03T13:39:27.957Z,1.63
2018-07-03T13:41:57.721Z,3.27
2018-07-03T13:44:26.469Z,2.03
2018-07-03T13:46:55.242Z,6.13
2018-07-03T13:49:25.028Z,3.10
2018-07-03T13:51:53.855Z,2.47
2018-07-03T13:54:22.624Z,1.43
2018-07-03T13:56:51.559Z,2.47
2018-07-03T13:59:21.368Z,5.10
2018-07-03T14:01:50.062Z,2.33
2018-07-03T14:04:18.821Z,4.10
2018-07-03T14:06:47.687Z,2.80
2018-07-03T14:09:16.498Z,2.23
2018-07-03T14:11:45.014Z,1.77
2018-07-03T14:14:13.759Z,2.40
2018-07-03T14:16:42.493Z,3.43
2018-07-03T14:19:11.374Z,2.83
2018-07-03T14:21:45.307Z,6.97
2018-07-03T14:24:14.064Z,2.23
2018-07-03T14:26:42.771Z,2.50
2018-07-03T14:29:11.689Z,1.43
2018-07-03T14:31:41.491Z,2.10
2018-07-03T14:34:10.230Z,3.20
2018-07-03T14:36:38.982Z,2.33
2018-07-03T14:39:10.570Z,3.10
2018-07-03T14:41:39.420Z,2.03
2018-07-03T14:44:08.074Z,3.63
2018-07-03T14:46:37.138Z,2.17
2018-07-03T14:49:05.990Z,3.53
2018-07-03T14:51:34.573Z,1.30
2018-07-03T14:54:03.306Z,1.07
2018-07-03T14:56:31.999Z,3.03
2018-07-03T14:59:00.751Z,2.43
2018-07-03T15:01:29.492Z,1.57
2018-07-03T15:03:59.313Z,2.27
2018-07-03T15:06:28.044Z,2.03
2018-07-03T15:08:56.741Z,2.10
2018-07-03T15:11:25.444Z,2.63
2018-07-03T15:13:54.939Z,1.63
2018-07-03T15:16:23.705Z,1.70
2018-07-03T15:18:57.871Z,3.17
2018-07-03T15:21:26.739Z,1.43
2018-07-03T15:23:55.494Z,5.87
2018-07-03T15:26:24.412Z,1.90
2018-07-03T15:28:53.221Z,3.70
2018-07-03T15:31:21.994Z,1.57
2018-07-03T15:33:50.750Z,1.60
2018-07-03T15:36:19.560Z,4.47
2018-07-03T15:38:48.068Z,6.53
2018-07-03T15:41:16.817Z,2.70
2018-07-03T15:43:56.965Z,1.67
2018-07-03T15:46:25.843Z,1.70
2018-07-03T15:48:54.930Z,2.10
2018-07-03T15:51:23.621Z,3.63
2018-07-03T15:53:52.514Z,1.57
2018-07-03T15:56:21.846Z,3.80
2018-07-03T15:58:51.112Z,3.20
2018-07-03T16:01:20.146Z,2.73
2018-07-03T16:06:07.020Z,2.10
2018-07-03T16:08:47.090Z,1.50
2018-07-03T16:11:19.725Z,1.60
2018-07-03T16:13:48.497Z,4.23
2018-07-03T16:16:20.710Z,1.50
2018-07-03T16:18:49.487Z,1.67
2018-07-03T16:21:18.441Z,1.40
2018-07-03T16:23:47.263Z,3.87
2018-07-03T16:26:15.978Z,2.40
2018-07-03T16:28:44.881Z,2.13
2018-07-03T16:31:13.665Z,1.70
2018-07-03T16:33:42.465Z,1.40
2018-07-03T16:36:11.478Z,2.50
2018-07-03T16:38:40.561Z,2.63
2018-07-03T16:41:09.340Z,1.40
2018-07-03T16:43:38.086Z,2.53
2018-07-03T16:46:07.070Z,3.27
2018-07-03T16:48:35.830Z,3.30
2018-07-03T16:51:06.565Z,1.50
2018-07-03T16:53:35.458Z,1.00
2018-07-03T16:56:04.330Z,1.47
2018-07-03T16:58:33.063Z,1.90
2018-07-03T17:01:01.782Z,2.10
2018-07-03T17:03:37.397Z,1.33
2018-07-03T17:06:06.546Z,1.10
2018-07-03T17:08:35.301Z,2.10
2018-07-03T17:11:06.142Z,2.53
2018-07-03T17:13:37.114Z,3.47
2018-07-03T17:16:05.940Z,2.10
2018-07-03T17:18:34.653Z,1.17
2018-07-03T17:21:03.410Z,2.60
2018-07-03T17:23:32.326Z,1.90
2018-07-03T17:26:01.551Z,2.57
2018-07-03T17:28:37.758Z,3.23
2018-07-03T17:31:07.570Z,1.87
2018-07-03T17:33:48.705Z,3.40
2018-07-03T17:36:17.431Z,4.13
2018-07-03T17:38:46.169Z,2.03
2018-07-03T17:41:28.760Z,2.00
2018-07-03T17:44:11.440Z,1.67
2018-07-03T17:46:40.209Z,1.87
2018-07-03T17:49:09.163Z,2.60
2018-07-03T17:51:38.127Z,1.83
2018-07-03T17:54:09.137Z,1.50
2018-07-03T17:56:37.851Z,1.90
2018-07-03T17:59:06.642Z,1.87
2018-07-03T18:01:36.432Z,1.27
2018-07-03T18:04:07.049Z,2.03
2018-07-03T18:06:35.452Z,3.50
2018-07-03T18:09:06.922Z,2.60
2018-07-03T18:11:36.498Z,3.70
2018-07-03T18:14:06.073Z,2.27
2018-07-03T18:16:35.875Z,2.90
2018-07-03T18:19:10.495Z,1.60
2018-07-03T18:21:39.330Z,2.00
2018-07-03T18:24:10.151Z,2.53
2018-07-03T18:26:39.957Z,4.97
2018-07-03T18:29:08.966Z,1.70
2018-07-03T18:31:37.742Z,2.37
2018-07-03T18:34:09.270Z,2.93
2018-07-03T18:36:39.345Z,4.20
2018-07-03T18:39:10.873Z,1.73
2018-07-03T18:41:47.113Z,2.20
2018-07-03T18:44:16.209Z,4.10
2018-07-03T18:46:45.168Z,2.33
2018-07-03T18:49:14.898Z,3.10
2018-07-03T18:51:46.290Z,7.30
2018-07-03T18:54:16.555Z,4.33
2018-07-03T18:56:45.284Z,2.70
2018-07-03T18:59:14.074Z,3.77
2018-07-03T19:01:42.936Z,4.63
2018-07-03T19:04:16.836Z,5.67
2018-07-03T19:06:48.872Z,4.23
2018-07-03T19:09:23.947Z,4.43
2018-07-03T19:11:54.978Z,3.97
2018-07-03T19:14:27.119Z,5.23
2018-07-03T19:17:09.264Z,3.33
2018-07-03T19:19:45.529Z,3.80
2018-07-03T19:22:16.836Z,3.77
2018-07-03T19:24:46.413Z,4.83
2018-07-03T19:27:16.054Z,6.50
2018-07-03T19:29:49.369Z,4.53
2018-07-03T19:32:18.238Z,7.47
2018-07-03T19:34:48.047Z,3.90
2018-07-03T19:37:24.001Z,5.20
2018-07-03T19:39:55.897Z,5.87
2018-07-03T19:42:28.521Z,4.43
2018-07-03T19:44:58.121Z,6.13
2018-07-03T19:47:29.701Z,5.57
2018-07-03T19:49:58.620Z,7.90
2018-07-03T19:52:31.825Z,5.53
2018-07-03T19:55:13.630Z,5.77
2018-07-03T19:57:45.793Z,4.27
2018-07-03T20:00:14.534Z,9.43
2018-07-03T20:02:43.353Z,7.23
2018-07-03T20:05:12.074Z,4.43
2018-07-03T20:07:40.946Z,7.67
2018-07-03T20:10:09.625Z,7.17
2018-07-03T20:12:38.310Z,6.53
2018-07-03T20:15:06.995Z,6.90
2018-07-03T20:17:35.680Z,8.67
2018-07-03T20:20:04.485Z,7.40
2018-07-03T20:22:33.157Z,10.00
2018-07-03T20:25:01.635Z,9.40
2018-07-03T20:27:32.971Z,6.10
2018-07-03T20:30:01.645Z,10.00
2018-07-03T20:32:34.053Z,7.13
2018-07-03T20:35:04.418Z,5.43
2018-07-03T20:38:02.954Z,6.90
2018-07-03T20:41:08.636Z,6.77
2018-07-03T20:43:38.619Z,7.80
2018-07-03T20:46:08.221Z,10.90
2018-07-03T20:48:36.934Z,7.13
2018-07-03T20:51:05.657Z,6.27
2018-07-03T20:53:34.362Z,7.13
2018-07-03T20:56:03.075Z,5.27
2018-07-03T20:58:31.760Z,14.33
2018-07-03T21:01:00.473Z,5.27
2018-07-03T21:03:32.332Z,8.63
2018-07-03T21:06:01.058Z,9.10
2018-07-03T21:08:29.691Z,9.00
2018-07-03T21:10:58.380Z,9.97
2018-07-03T21:13:27.160Z,8.87
2018-07-03T21:15:55.850Z,7.03
2018-07-03T21:18:25.050Z,8.10
2018-07-03T21:20:53.791Z,7.67
2018-07-03T21:23:24.492Z,10.50
2018-07-03T21:25:53.204Z,7.43
2018-07-03T21:28:21.974Z,9.40
2018-07-03T21:30:51.706Z,8.20
2018-07-03T21:33:21.474Z,5.70
2018-07-03T21:35:50.192Z,10.80
2018-07-03T21:38:19.000Z,8.47
2018-07-03T21:40:47.751Z,8.50
2018-07-03T21:43:16.521Z,11.10
2018-07-03T21:45:45.301Z,10.27
2018-07-03T21:48:14.017Z,7.43
2018-07-03T21:50:42.727Z,6.70
2018-07-03T21:53:11.376Z,8.07
2018-07-03T21:55:45.704Z,5.90
2018-07-03T21:58:14.456Z,8.20
2018-07-03T22:00:43.148Z,5.57
2018-07-03T22:03:12.420Z,12.63
2018-07-03T22:05:41.540Z,6.80
2018-07-03T22:08:09.995Z,8.57
2018-07-03T22:10:40.299Z,9.27
2018-07-03T22:13:09.960Z,7.27
2018-07-03T22:15:38.651Z,11.27
2018-07-03T22:18:07.443Z,8.47
2018-07-03T22:20:39.205Z,8.17
2018-07-03T22:23:19.313Z,10.37
2018-07-03T22:26:09.024Z,6.40
2018-07-03T22:28:37.824Z,5.33
2018-07-03T22:31:06.573Z,8.10
2018-07-03T22:33:35.260Z,9.87
2018-07-03T22:36:04.137Z,7.33
2018-07-03T22:38:35.788Z,11.30
2018-07-03T22:41:04.534Z,6.07
2018-07-03T22:43:33.249Z,5.43
2018-07-03T22:46:01.950Z,8.27
2018-07-03T22:48:30.687Z,9.03
2018-07-03T22:51:05.102Z,5.83
2018-07-03T22:53:33.861Z,6.80
2018-07-03T22:56:02.884Z,7.10
2018-07-03T22:58:31.605Z,7.63
2018-07-03T23:01:00.262Z,9.27
2018-07-03T23:03:28.941Z,8.80
2018-07-03T23:06:10.287Z,8.33
2018-07-03T23:08:38.961Z,7.80
2018-07-03T23:11:07.665Z,6.03
2018-07-03T23:13:36.595Z,7.77
2018-07-03T23:16:06.237Z,7.17
2018-07-03T23:18:40.488Z,9.40
2018-07-03T23:21:09.189Z,7.87
2018-07-03T23:23:37.898Z,14.17
2018-07-03T23:26:06.585Z,9.77
2018-07-03T23:28:35.289Z,8.30
2018-07-03T23:31:03.997Z,8.13
2018-07-03T23:33:33.875Z,7.83
2018-07-03T23:36:02.558Z,9.00
2018-07-03T23:38:33.344Z,8.33
2018-07-03T23:41:14.991Z,6.63
2018-07-03T23:43:43.688Z,7.00
2018-07-03T23:46:23.836Z,9.73
2018-07-03T23:49:03.961Z,7.97
2018-07-03T23:51:43.949Z,7.87
2018-07-03T23:54:24.144Z,7.27
2018-07-03T23:57:04.309Z,10.50
2018-07-03T23:59:44.533Z,6.80
